METAR Data
IDs: Format: Raw Decoded Include TAF

Data at: 2106 UTC 24 Mar 2019

PGUM 242054Z 05013KT 10SM OVC047 27/22 A2994 RMK AO2 SLP131 60000 T02670222 53012
PGUM 241954Z 05010KT 10SM OVC048 26/22 A2992 RMK AO2 SLP125 T02610222
PGUM 241854Z 05011KT 10SM OVC047 26/23 A2992 RMK AO2 RAB27E36 SLP122 P0000 T02610228
PGUM 241754Z 04010KT 10SM OVC049 26/22 A2991 RMK AO2 SLP119 T02610217 10267 20256 56007
PGUM 241654Z 05011KT 10SM FEW021 OVC048 26/22 A2991 RMK AO2 SLP120 T02610222
PGUM 241554Z 05011KT 10SM BKN048 26/22 A2992 RMK AO2 SLP123 T02610222

PGUM 241720Z 2418/2524 05011KT P6SM SCT020 SCT050
  FM250000 05012G22KT P6SM FEW020 SCT050
  FM250800 06010KT P6SM FEW020 SCT050